Scout — WCZ2046 — position and weather

sailwx.info

Track history (hours):
 
Tides and Currents Weather Stations Pressure Air Temp Water Temp Dewpoint Dewpoint Depression Visibility Wind Speed Wind Dir Waves Ship Positions

Scout

Owner: Crowley Marine Services, SEATTLE, WA. More information available from US FCC via Universal Licensing System and Coast Guard Vessel Documentation Center.

Last reported at 2017-Jun-24 18:24 UTC. Time now 2017-Jun-24 18:50 UTC.
Position N 33°43' W 118°15'.

; draft 5.6 m.

Type: Tug. MMSI: 366764730.

Date/timePositionNaut miles runAvg speedWind from/ knotsBaromVisibWave heightAir tempDewpointWater temp
2017-Jun-24 18:24N 33°43' W 118°15'1 3.8
2017-Jun-24 18:00N 33°43' W 118°17'0 0.1
2017-Jun-24 17:30N 33°43' W 118°17'1 1.0
2017-Jun-24 17:00N 33°43' W 118°16'2 3.3
2017-Jun-24 16:23N 33°45' W 118°16'0 0.8
2017-Jun-24 15:56N 33°45' W 118°16'2 4.9
2017-Jun-24 15:28N 33°43' W 118°16'2 5.2
2017-Jun-24 15:00N 33°42' W 118°13'4 3.9
2017-Jun-24 14:00N 33°44' W 118°17'0 0.0
2017-Jun-24 13:29N 33°44' W 118°17'0 0.0
2017-Jun-24 13:00N 33°44' W 118°17'0 0.0
2017-Jun-24 12:30N 33°44' W 118°17'0 0.0
2017-Jun-24 12:00N 33°44' W 118°17'1 2.0
2017-Jun-24 11:30N 33°44' W 118°16'3 6.0
2017-Jun-24 11:00N 33°44' W 118°13'1 2.2
2017-Jun-24 10:30N 33°46' W 118°13'0 0.0
2017-Jun-24 10:00N 33°46' W 118°13'0 0.2
2017-Jun-24 09:23N 33°46' W 118°13'0 0.2
2017-Jun-24 09:00N 33°45' W 118°13'3 6.5
2017-Jun-24 08:30N 33°43' W 118°16'2 3.1
2017-Jun-24 08:00N 33°44' W 118°17'0 0.0
2017-Jun-24 07:30N 33°44' W 118°17'0 0.0
2017-Jun-24 07:00N 33°44' W 118°17'0 0.0
2017-Jun-24 06:30N 33°44' W 118°17'0 0.0
2017-Jun-24 06:00N 33°44' W 118°17'0 0.0
2017-Jun-24 05:30N 33°44' W 118°17'0 0.0
2017-Jun-24 05:00N 33°44' W 118°17'0 0.0
2017-Jun-24 04:30N 33°44' W 118°17'0 0.0
2017-Jun-24 04:00N 33°44' W 118°17'2 3.1
2017-Jun-24 03:30N 33°43' W 118°16'3 4.8
2017-Jun-24 02:52N 33°45' W 118°13'0 0.0
2017-Jun-24 02:20N 33°45' W 118°13'0 0.0
2017-Jun-24 01:35N 33°45' W 118°13'0 0.0
2017-Jun-24 01:27N 33°45' W 118°13'1 2.9
2017-Jun-24 00:58N 33°46' W 118°13'2 3.3
2017-Jun-24 00:23N 33°45' W 118°13'0 0.9
2017-Jun-23 23:58N 33°44' W 118°13'0 0.2
2017-Jun-23 23:30N 33°44' W 118°13'3 6.2
2017-Jun-23 23:00N 33°43' W 118°16'2 3.3
2017-Jun-23 22:30N 33°44' W 118°17'0 0.0
2017-Jun-23 22:00N 33°44' W 118°17'0 0.0
2017-Jun-23 21:27N 33°44' W 118°17'0 0.0
2017-Jun-23 21:00N 33°44' W 118°17'0 0.0
2017-Jun-23 20:30N 33°44' W 118°17'0 0.0
2017-Jun-23 20:00N 33°44' W 118°17'0 0.0
2017-Jun-23 19:29N 33°44' W 118°17'0 0.0
2017-Jun-23 19:00N 33°44' W 118°17'2 3.1
2017-Jun-23 18:30N 33°43' W 118°17'0 0.0
2017-Jun-23 18:00N 33°43' W 118°17'0 0.0
2017-Jun-23 17:29N 33°43' W 118°17'2 3.8
2017-Jun-23 17:00N 33°43' W 118°14'1 1.1
2017-Jun-23 16:30N 33°43' W 118°14'2 4.0
2017-Jun-23 16:00N 33°44' W 118°16'2 4.2
2017-Jun-23 15:30N 33°46' W 118°16'0 0.0
2017-Jun-23 14:59N 33°46' W 118°16'1 1.4
2017-Jun-23 14:00N 33°44' W 118°17'0 0.0
2017-Jun-23 13:29N 33°44' W 118°17'1 1.5
2017-Jun-23 13:00N 33°45' W 118°16'0 0.3
2017-Jun-23 12:30N 33°45' W 118°16'3 5.3
2017-Jun-23 12:00N 33°43' W 118°15'1 2.1
2017-Jun-23 11:30N 33°43' W 118°14'3 6.4
2017-Jun-23 11:00N 33°44' W 118°10'0 0.7
2017-Jun-23 10:30N 33°44' W 118°10'3 5.4
2017-Jun-23 09:58N 33°45' W 118°13'1 2.7
2017-Jun-23 09:29N 33°46' W 118°14'0 0.4
2017-Jun-23 08:50N 33°46' W 118°14'1 1.3
2017-Jun-23 08:27N 33°46' W 118°13'1 1.1
2017-Jun-23 07:33N 33°45' W 118°13'0 0.0
2017-Jun-23 07:05N 33°45' W 118°13'0 0.0
2017-Jun-23 06:52N 33°45' W 118°13'0 0.0
2017-Jun-23 06:28N 33°45' W 118°13'0 0.0
2017-Jun-23 05:44N 33°45' W 118°13'0 0.0
2017-Jun-23 05:30N 33°45' W 118°13'0 0.3
2017-Jun-23 05:00N 33°45' W 118°13'3 4.2
2017-Jun-23 04:20N 33°44' W 118°10'1 2.8
2017-Jun-23 04:00N 33°44' W 118°11'2 4.8
2017-Jun-23 03:31N 33°43' W 118°14'1 1.8
2017-Jun-23 03:00N 33°44' W 118°13'1 2.3
2017-Jun-23 02:31N 33°45' W 118°14'0 0.7
2017-Jun-23 02:00N 33°45' W 118°14'1 2.7
2017-Jun-23 01:30N 33°45' W 118°13'0 0.5
2017-Jun-23 01:00N 33°45' W 118°12'1 1.5
2017-Jun-23 00:30N 33°44' W 118°12'2 3.2
2017-Jun-23 00:00N 33°44' W 118°11'1 1.9
2017-Jun-22 23:30N 33°44' W 118°12'2 3.1
2017-Jun-22 23:00N 33°45' W 118°13'0 0.0
2017-Jun-22 22:26N 33°45' W 118°13'0 0.0
2017-Jun-22 21:38N 33°45' W 118°13'0 0.0
2017-Jun-22 21:29N 33°45' W 118°13'0 0.9
2017-Jun-22 21:00N 33°45' W 118°13'0 0.0
2017-Jun-22 20:30N 33°45' W 118°13'0 0.0
2017-Jun-22 20:00N 33°45' W 118°13'0 0.0
2017-Jun-22 19:30N 33°45' W 118°13'0 0.0
2017-Jun-22 19:00N 33°45' W 118°13'1 1.1
2017-Jun-22 18:28N 33°45' W 118°13'2 4.5
2017-Jun-22 18:00N 33°43' W 118°11'0 0.4
2017-Jun-22 17:30N 33°44' W 118°11'0 0.5
2017-Jun-22 17:00N 33°44' W 118°12'3 6.9
2017-Jun-22 16:30N 33°43' W 118°16'2 3.3
2017-Jun-22 16:00N 33°44' W 118°17'0 0.0
2017-Jun-22 15:25N 33°44' W 118°17'1 1.3
2017-Jun-22 15:00N 33°45' W 118°16'0 0.5
2017-Jun-22 14:29N 33°45' W 118°16'2 1.7
2017-Jun-22 13:30N 33°44' W 118°15'1 2.1
2017-Jun-22 13:00N 33°43' W 118°16'1 1.9
2017-Jun-22 12:30N 33°43' W 118°15'1 1.9
2017-Jun-22 12:00N 33°43' W 118°16'3 5.1
2017-Jun-22 11:30N 33°46' W 118°16'0 0.5
2017-Jun-22 11:00N 33°46' W 118°15'2 3.3
2017-Jun-22 10:30N 33°44' W 118°17'2 4.4
2017-Jun-22 10:00N 33°43' W 118°15'0 0.9
2017-Jun-22 09:30N 33°43' W 118°15'3 6.7
2017-Jun-22 09:00N 33°40' W 118°12'4 7.5
2017-Jun-22 08:30N 33°38' W 118°09'5 9.3
2017-Jun-22 08:00N 33°34' W 118°05'5 9.8
2017-Jun-22 07:28N 33°30' W 118°01'510.1
2017-Jun-22 07:00N 33°26' W 117°58'510.0
2017-Jun-22 06:30N 33°22' W 117°54'510.3
2017-Jun-22 06:00N 33°18' W 117°51'510.4
2017-Jun-22 05:30N 33°14' W 117°47'510.4
2017-Jun-22 05:00N 33°10' W 117°43'510.4
2017-Jun-22 04:30N 33°06' W 117°40'510.4
2017-Jun-22 04:00N 33°01' W 117°36'510.3
2017-Jun-22 03:30N 32°57' W 117°32'510.3
2017-Jun-22 03:00N 32°53' W 117°28'510.2
2017-Jun-22 02:30N 32°49' W 117°25'510.7
2017-Jun-22 02:00N 32°45' W 117°21'510.8
2017-Jun-22 01:30N 32°41' W 117°17'3 5.8
2017-Jun-22 01:00N 32°40' W 117°14'4 7.3
2017-Jun-22 00:30N 32°43' W 117°11'2 0.2
2017-Jun-21 15:02N 32°42' W 117°09'0 0.0
2017-Jun-21 14:59N 32°42' W 117°09'3 2.9
2017-Jun-21 13:56N 32°39' W 117°07'3 6.5
2017-Jun-21 13:30N 32°41' W 117°09'0 0.2
2017-Jun-21 11:45N 32°42' W 117°09'0 0.2
2017-Jun-21 11:30N 32°42' W 117°09'0 0.1
2017-Jun-21 10:50N 32°42' W 117°09'0 0.0
2017-Jun-21 10:27N 32°42' W 117°09'0 0.0
2017-Jun-21 10:00N 32°42' W 117°09'0 0.1
2017-Jun-21 09:30N 32°42' W 117°09'4 7.2
2017-Jun-21 09:00N 32°43' W 117°13'4 7.8
2017-Jun-21 08:30N 32°39' W 117°14'3 6.3
2017-Jun-21 08:00N 32°40' W 117°17'4 8.5
2017-Jun-21 07:30N 32°44' W 117°20'4 8.3
2017-Jun-21 07:00N 32°47' W 117°23'4 8.7
2017-Jun-21 06:30N 32°50' W 117°26'4 8.8
2017-Jun-21 06:00N 32°54' W 117°29'4 8.9
2017-Jun-21 05:30N 32°57' W 117°33'4 8.9
2017-Jun-21 05:00N 33°01' W 117°36'4 8.8
2017-Jun-21 04:30N 33°04' W 117°39'4 8.8
2017-Jun-21 04:00N 33°08' W 117°42'4 8.7
2017-Jun-21 03:30N 33°11' W 117°45'4 8.9
2017-Jun-21 03:00N 33°15' W 117°49'5 9.2
2017-Jun-21 02:30N 33°19' W 117°52'5 9.3
2017-Jun-21 02:00N 33°22' W 117°55'5 9.3
2017-Jun-21 01:30N 33°26' W 117°58'5 9.5
2017-Jun-21 01:00N 33°30' W 118°02'5 9.4
2017-Jun-21 00:30N 33°33' W 118°05'5 9.5
2017-Jun-21 00:00N 33°37' W 118°09'5 9.9
2017-Jun-20 23:30N 33°41' W 118°13'3 5.0
2017-Jun-20 22:59N 33°43' W 118°15'3 5.4
2017-Jun-20 22:30N 33°45' W 118°14'0 0.0
2017-Jun-20 22:00N 33°45' W 118°14'1 2.8
2017-Jun-20 21:30N 33°44' W 118°13'1 2.6
2017-Jun-20 21:00N 33°44' W 118°11'4 7.4
2017-Jun-20 20:30N 33°43' W 118°16'1 2.9
2017-Jun-20 20:00N 33°44' W 118°17'0 0.0
2017-Jun-20 19:30N 33°44' W 118°17'0 0.0
2017-Jun-20 19:00N 33°44' W 118°17'0 0.0
2017-Jun-20 18:30N 33°44' W 118°17'2 3.9
2017-Jun-20 18:00N 33°43' W 118°15'3 6.6
2017-Jun-20 17:30N 33°46' W 118°13'1 1.5
2017-Jun-20 17:00N 33°46' W 118°13'0 0.0
2017-Jun-20 16:29N 33°46' W 118°13'1 1.4
2017-Jun-20 16:00N 33°46' W 118°13'2 4.8
2017-Jun-20 15:29N 33°44' W 118°13'2 4.9
2017-Jun-20 15:00N 33°44' W 118°16'2 1.6
2017-Jun-20 14:00N 33°45' W 118°16'0 0.4
2017-Jun-20 13:31N 33°45' W 118°16'1 1.5
2017-Jun-20 13:00N 33°46' W 118°16'1 3.0
2017-Jun-20 12:30N 33°44' W 118°17'3 5.5
2017-Jun-20 12:00N 33°44' W 118°13'1 2.1
2017-Jun-20 11:23N 33°45' W 118°14'0 0.5
2017-Jun-20 10:59N 33°45' W 118°14'2 4.6
2017-Jun-20 10:28N 33°44' W 118°12'1 1.1
2017-Jun-20 09:47N 33°44' W 118°11'3 5.3
2017-Jun-20 09:12N 33°43' W 118°14'2 8.0
2017-Jun-20 09:00N 33°43' W 118°16'1 2.4
2017-Jun-20 08:30N 33°44' W 118°17'0 0.0
2017-Jun-20 07:59N 33°44' W 118°17'0 0.0
2017-Jun-20 07:30N 33°44' W 118°17'0 0.0
2017-Jun-20 07:00N 33°44' W 118°17'0 0.0
2017-Jun-20 06:30N 33°44' W 118°17'0 0.0
2017-Jun-20 06:00N 33°44' W 118°17'0 0.0
2017-Jun-20 05:30N 33°44' W 118°17'0 0.0
2017-Jun-20 05:00N 33°44' W 118°17'0 0.0
2017-Jun-20 04:30N 33°44' W 118°17'0 0.0
2017-Jun-20 04:00N 33°44' W 118°17'0 0.0
2017-Jun-20 03:30N 33°44' W 118°17'0 0.0
2017-Jun-20 03:00N 33°44' W 118°17'0 0.6
2017-Jun-20 02:30N 33°44' W 118°17'2 4.5
2017-Jun-20 02:00N 33°46' W 118°15'2 4.9
2017-Jun-20 01:30N 33°44' W 118°16'3 6.8
2017-Jun-20 01:00N 33°45' W 118°12'0 0.2
2017-Jun-20 00:30N 33°45' W 118°12'0 0.1
2017-Jun-20 00:00N 33°45' W 118°12'0 0.4
2017-Jun-19 23:30N 33°45' W 118°12'3 6.7
2017-Jun-19 23:01N 33°43' W 118°16'1 2.2
2017-Jun-19 22:30N 33°44' W 118°17'0 0.0
2017-Jun-19 22:00N 33°44' W 118°17'0 0.0
2017-Jun-19 21:30N 33°44' W 118°17'0 0.0
2017-Jun-19 21:00N 33°44' W 118°17'0 0.0
2017-Jun-19 20:30N 33°44' W 118°17'0 0.0
2017-Jun-19 20:00N 33°44' W 118°17'0 0.0
2017-Jun-19 19:30N 33°44' W 118°17'0 0.0
2017-Jun-19 19:01N 33°44' W 118°17'3 5.3
2017-Jun-19 18:30N 33°44' W 118°14'2 3.6
2017-Jun-19 18:00N 33°45' W 118°13'0 0.0
2017-Jun-19 17:30N 33°45' W 118°13'0 0.1
2017-Jun-19 17:00N 33°45' W 118°13'1 2.2
2017-Jun-19 16:30N 33°44' W 118°13'1 1.5
2017-Jun-19 16:00N 33°44' W 118°12'0 0.0
2017-Jun-19 15:30N 33°44' W 118°12'0 0.1
2017-Jun-19 15:00N 33°44' W 118°12'1 2.2
2017-Jun-19 14:31N 33°45' W 118°13'2 2.2
2017-Jun-19 13:30N 33°44' W 118°10'0 0.3
2017-Jun-19 13:00N 33°44' W 118°11'1 1.7
2017-Jun-19 12:29N 33°44' W 118°12'1 1.7
2017-Jun-19 12:00N 33°44' W 118°13'3 5.6
2017-Jun-19 11:30N 33°43' W 118°16'1 2.5
2017-Jun-19 10:58N 33°44' W 118°17'0 0.0
2017-Jun-19 10:30N 33°44' W 118°17'0 0.0
2017-Jun-19 10:00N 33°44' W 118°17'0 0.0
2017-Jun-19 09:30N 33°44' W 118°17'0 0.0
2017-Jun-19 09:00N 33°44' W 118°17'1 2.0
2017-Jun-19 08:30N 33°45' W 118°16'0 0.0
2017-Jun-19 08:00N 33°45' W 118°16'1 2.2
2017-Jun-19 07:30N 33°44' W 118°17'3 5.0
2017-Jun-19 07:00N 33°43' W 118°14'4 7.1
2017-Jun-19 06:30N 33°44' W 118°10'0 0.8
2017-Jun-19 06:00N 33°44' W 118°09'0 0.1
2017-Jun-19 05:30N 33°44' W 118°09'3 5.1
2017-Jun-19 05:01N 33°43' W 118°12'4 7.0
2017-Jun-19 04:30N 33°44' W 118°17'0 0.7
2017-Jun-19 04:00N 33°44' W 118°17'0 0.0
2017-Jun-19 03:30N 33°44' W 118°17'0 0.0
2017-Jun-19 03:00N 33°44' W 118°17'0 0.0
2017-Jun-19 02:27N 33°44' W 118°17'1 2.8
2017-Jun-19 02:00N 33°43' W 118°16'1 1.3
2017-Jun-19 01:30N 33°44' W 118°15'0 0.5
2017-Jun-19 01:00N 33°44' W 118°15'0 1.0
2017-Jun-19 00:31N 33°44' W 118°16'1 2.2
2017-Jun-19 00:00N 33°44' W 118°17'0 0.0
2017-Jun-18 23:30N 33°44' W 118°17'0 0.0
2017-Jun-18 23:00N 33°44' W 118°17'1 1.5
2017-Jun-18 22:30N 33°45' W 118°16'1 1.8
2017-Jun-18 22:01N 33°44' W 118°17'1 2.8
2017-Jun-18 21:30N 33°43' W 118°16'2 3.1
2017-Jun-18 21:00N 33°42' W 118°14'2 3.5
2017-Jun-18 20:30N 33°43' W 118°16'1 2.9
2017-Jun-18 20:00N 33°44' W 118°17'0 0.0
2017-Jun-18 19:30N 33°44' W 118°17'0 0.0
2017-Jun-18 19:00N 33°44' W 118°17'0 0.0
2017-Jun-18 18:30N 33°44' W 118°17'0 0.0
2017-Jun-18 18:00N 33°44' W 118°17'0 0.0
2017-Jun-18 17:30N 33°44' W 118°17'0 0.0
2017-Jun-18 17:00N 33°44' W 118°17'0 0.0
2017-Jun-18 16:30N 33°44' W 118°17'0 0.9
2017-Jun-18 16:00N 33°44' W 118°17'3 5.4
2017-Jun-18 15:30N 33°44' W 118°13'2 3.6
2017-Jun-18 14:56N 33°46' W 118°13'0 0.2
2017-Jun-18 13:59N 33°46' W 118°13'1 2.5
2017-Jun-18 13:30N 33°45' W 118°13'3 5.8
2017-Jun-18 13:00N 33°43' W 118°11'2 3.5
2017-Jun-18 12:25N 33°42' W 118°08'2 3.5
2017-Jun-18 11:58N 33°43' W 118°10'3 6.8
2017-Jun-18 11:31N 33°45' W 118°13'0 0.5
2017-Jun-18 11:00N 33°45' W 118°13'0 0.0
2017-Jun-18 10:30N 33°45' W 118°13'0 0.0
2017-Jun-18 10:00N 33°45' W 118°13'0 1.0
2017-Jun-18 09:30N 33°45' W 118°13'0 0.0
2017-Jun-18 09:00N 33°45' W 118°13'0 0.0
2017-Jun-18 08:30N 33°45' W 118°13'0 0.0
2017-Jun-18 08:00N 33°45' W 118°13'0 0.4
2017-Jun-18 07:30N 33°45' W 118°13'2 3.5
2017-Jun-18 07:00N 33°44' W 118°12'1 2.3
2017-Jun-18 06:30N 33°44' W 118°10'0 0.2
2017-Jun-18 06:00N 33°44' W 118°11'1 2.7
2017-Jun-18 05:30N 33°43' W 118°12'3 5.9
2017-Jun-18 04:59N 33°43' W 118°16'1 3.0
2017-Jun-18 04:30N 33°44' W 118°17'0 0.0
2017-Jun-18 04:00N 33°44' W 118°17'0 0.0
2017-Jun-18 03:30N 33°44' W 118°17'0 0.0
2017-Jun-18 03:01N 33°44' W 118°17'0 0.0
2017-Jun-18 02:30N 33°44' W 118°17'0 0.0
2017-Jun-18 02:00N 33°44' W 118°17'0 0.0
2017-Jun-18 01:30N 33°44' W 118°17'0 0.0
2017-Jun-18 01:00N 33°44' W 118°17'0 0.0
2017-Jun-18 00:30N 33°44' W 118°17'0 0.0
2017-Jun-18 00:00N 33°44' W 118°17'0 0.0
2017-Jun-17 23:30N 33°44' W 118°17'0 0.0
2017-Jun-17 23:00N 33°44' W 118°17'0 0.0
2017-Jun-17 22:30N 33°44' W 118°17'0 0.0
2017-Jun-17 22:00N 33°44' W 118°17'0 0.0
2017-Jun-17 21:30N 33°44' W 118°17'0 0.0
2017-Jun-17 21:00N 33°44' W 118°17'0 0.0
2017-Jun-17 20:30N 33°44' W 118°17'0 0.0
2017-Jun-17 20:00N 33°44' W 118°17'0 0.0
2017-Jun-17 19:30N 33°44' W 118°17'0 0.0
2017-Jun-17 19:00N 33°44' W 118°17'0 0.0
2017-Jun-17 18:30N 33°44' W 118°17'0 0.0
2017-Jun-17 18:00N 33°44' W 118°17'0 0.0
2017-Jun-17 17:30N 33°44' W 118°17'0 0.0
2017-Jun-17 17:00N 33°44' W 118°17'0 0.0
2017-Jun-17 16:30N 33°44' W 118°17'0 0.0
2017-Jun-17 16:00N 33°44' W 118°17'0 0.0
2017-Jun-17 15:30N 33°44' W 118°17'1 1.6
2017-Jun-17 15:00N 33°44' W 118°16'3 3.2
2017-Jun-17 14:00N 33°45' W 118°13'0 0.1
2017-Jun-17 13:27N 33°45' W 118°13'1 3.1
2017-Jun-17 13:00N 33°46' W 118°13'2 3.6
2017-Jun-17 12:30N 33°45' W 118°13'1 2.8
2017-Jun-17 12:00N 33°44' W 118°12'0 0.5
2017-Jun-17 11:30N 33°44' W 118°12'3 6.8
2017-Jun-17 11:01N 33°43' W 118°16'1 2.5
2017-Jun-17 10:30N 33°44' W 118°17'0 0.0
2017-Jun-17 10:00N 33°44' W 118°17'0 0.0
2017-Jun-17 09:30N 33°44' W 118°17'0 0.0
2017-Jun-17 09:00N 33°44' W 118°17'0 0.0
2017-Jun-17 08:30N 33°44' W 118°17'0 0.0
2017-Jun-17 08:00N 33°44' W 118°17'0 0.0
2017-Jun-17 07:30N 33°44' W 118°17'0 0.0
2017-Jun-17 07:00N 33°44' W 118°17'0 0.0
2017-Jun-17 06:30N 33°44' W 118°17'0 0.0
2017-Jun-17 05:55N 33°44' W 118°17'0 0.0
2017-Jun-17 05:21N 33°44' W 118°17'0 0.0
2017-Jun-17 00:03N 33°44' W 118°17'0 0.0
2017-Jun-16 23:20N 33°44' W 118°17'0 0.0
2017-Jun-16 23:00N 33°44' W 118°17'0 0.0
2017-Jun-16 22:30N 33°44' W 118°17'0 0.0
2017-Jun-16 22:00N 33°44' W 118°17'0 0.0
2017-Jun-16 21:30N 33°44' W 118°17'0 0.0
2017-Jun-16 21:00N 33°44' W 118°17'0 0.0
2017-Jun-16 20:30N 33°44' W 118°17'0 0.0
2017-Jun-16 20:00N 33°44' W 118°17'0 0.0
2017-Jun-16 19:30N 33°44' W 118°17'0 0.0
2017-Jun-16 19:00N 33°44' W 118°17'0 0.0
2017-Jun-16 18:30N 33°44' W 118°17'0 0.0
2017-Jun-16 18:00N 33°44' W 118°17'0 0.0
2017-Jun-16 17:30N 33°44' W 118°17'0 0.0
2017-Jun-16 16:46N 33°44' W 118°17'1 2.4
2017-Jun-16 16:30N 33°44' W 118°16'3 5.7
2017-Jun-16 16:01N 33°45' W 118°13'2 3.5
2017-Jun-16 15:30N 33°46' W 118°13'0 0.3
2017-Jun-16 15:00N 33°46' W 118°13'3 3.9
2017-Jun-16 14:19N 33°44' W 118°13'0 0.2
2017-Jun-16 13:30N 33°44' W 118°13'2 3.3
2017-Jun-16 13:00N 33°45' W 118°14'1 1.2
2017-Jun-16 12:30N 33°45' W 118°15'0 0.1
2017-Jun-16 12:00N 33°45' W 118°15'0 0.1
2017-Jun-16 11:30N 33°45' W 118°15'2 4.2
2017-Jun-16 11:00N 33°43' W 118°14'2 4.8
2017-Jun-16 10:30N 33°44' W 118°17'0 0.0
2017-Jun-16 10:00N 33°44' W 118°17'0 0.0
2017-Jun-16 09:30N 33°44' W 118°17'0 0.0
2017-Jun-16 09:00N 33°44' W 118°17'0 0.0
2017-Jun-16 08:30N 33°44' W 118°17'0 0.0
2017-Jun-16 08:00N 33°44' W 118°17'0 0.0
2017-Jun-16 07:30N 33°44' W 118°17'0 0.0
2017-Jun-16 07:00N 33°44' W 118°17'0 0.0
2017-Jun-16 06:30N 33°44' W 118°17'0 0.0
2017-Jun-16 06:00N 33°44' W 118°17'0 0.0
2017-Jun-16 05:30N 33°44' W 118°17'0 0.0
2017-Jun-16 04:59N 33°44' W 118°17'0 0.0
2017-Jun-16 04:30N 33°44' W 118°17'0 0.0
2017-Jun-16 04:00N 33°44' W 118°17'0 0.0
2017-Jun-16 03:20N 33°44' W 118°17'0 0.0
2017-Jun-16 02:59N 33°44' W 118°17'0 0.0
2017-Jun-16 02:27N 33°44' W 118°17'0 0.0
2017-Jun-16 01:58N 33°44' W 118°17'0 0.0
2017-Jun-16 01:29N 33°44' W 118°17'0 0.0
2017-Jun-16 01:00N 33°44' W 118°17'0 0.0
2017-Jun-16 00:30N 33°44' W 118°17'0 0.0
2017-Jun-16 00:00N 33°44' W 118°17'0 0.0
2017-Jun-15 23:30N 33°44' W 118°17'1 1.1
2017-Jun-15 23:00N 33°45' W 118°16'1 1.9
2017-Jun-15 22:30N 33°46' W 118°17'1 2.5
2017-Jun-15 22:00N 33°45' W 118°17'2 4.7
2017-Jun-15 21:30N 33°43' W 118°15'0 0.1
2017-Jun-15 21:00N 33°43' W 118°15'2 4.5
2017-Jun-15 20:30N 33°44' W 118°17'0 0.0
2017-Jun-15 20:00N 33°44' W 118°17'0 0.0
2017-Jun-15 19:30N 33°44' W 118°17'0 0.0
2017-Jun-15 19:00N 33°44' W 118°17'0 0.0
2017-Jun-15 18:30N 33°44' W 118°17'0 0.0
2017-Jun-15 18:00N 33°44' W 118°17'0 0.0
2017-Jun-15 17:30N 33°44' W 118°17'0 0.0
2017-Jun-15 17:00N 33°44' W 118°17'2 4.2
2017-Jun-15 16:30N 33°43' W 118°15'3 6.0
2017-Jun-15 16:01N 33°45' W 118°13'1 1.9
2017-Jun-15 15:30N 33°46' W 118°13'0 0.4
2017-Jun-15 15:00N 33°46' W 118°13'0 0.0
2017-Jun-15 14:30N 33°46' W 118°13'0 0.1
2017-Jun-15 13:30N 33°46' W 118°13'3 6.7
2017-Jun-15 13:00N 33°43' W 118°14'3 5.2
2017-Jun-15 12:30N 33°44' W 118°17'0 0.0
2017-Jun-15 12:00N 33°44' W 118°17'0 0.0
2017-Jun-15 11:30N 33°44' W 118°17'0 0.0
2017-Jun-15 11:00N 33°44' W 118°17'0 0.0
2017-Jun-15 10:30N 33°44' W 118°17'0 0.0
2017-Jun-15 10:00N 33°44' W 118°17'0 0.0
2017-Jun-15 09:30N 33°44' W 118°17'1 1.1
2017-Jun-15 09:00N 33°44' W 118°16'3 5.6
2017-Jun-15 08:31N 33°44' W 118°13'1 1.8
2017-Jun-15 08:00N 33°45' W 118°13'0 0.6
2017-Jun-15 07:30N 33°45' W 118°13'2 3.2
2017-Jun-15 07:00N 33°44' W 118°12'0 0.5
2017-Jun-15 06:30N 33°44' W 118°12'0 0.1
2017-Jun-15 06:00N 33°44' W 118°12'0 0.0
2017-Jun-15 05:30N 33°44' W 118°12'1 1.2
2017-Jun-15 05:00N 33°44' W 118°13'1 1.0
2017-Jun-15 04:27N 33°45' W 118°13'0 0.0
2017-Jun-15 04:00N 33°45' W 118°13'0 0.0
2017-Jun-15 03:30N 33°45' W 118°13'0 0.0
2017-Jun-15 03:00N 33°45' W 118°13'0 0.0
2017-Jun-15 02:30N 33°45' W 118°13'0 0.0
2017-Jun-15 02:00N 33°45' W 118°13'0 0.0
2017-Jun-15 01:30N 33°45' W 118°13'2 3.3
2017-Jun-15 01:00N 33°44' W 118°12'3 6.1
2017-Jun-15 00:30N 33°41' W 118°10'2 4.2
2017-Jun-15 00:00N 33°42' W 118°13'4 8.0
2017-Jun-14 23:30N 33°44' W 118°17'0 0.8
2017-Jun-14 23:00N 33°44' W 118°17'0 0.0
2017-Jun-14 22:30N 33°44' W 118°17'0 0.0
2017-Jun-14 22:00N 33°44' W 118°17'0 0.0
2017-Jun-14 21:30N 33°44' W 118°17'0 0.0
2017-Jun-14 21:00N 33°44' W 118°17'0 0.0
2017-Jun-14 20:30N 33°44' W 118°17'0 0.0
2017-Jun-14 20:00N 33°44' W 118°17'0 0.0
2017-Jun-14 19:30N 33°44' W 118°17'0 0.0
2017-Jun-14 19:00N 33°44' W 118°17'0 0.0
2017-Jun-14 18:30N 33°44' W 118°17'  
Track history (hours):
 
Tides and Currents Weather Stations Pressure Air Temp Water Temp Dewpoint Dewpoint Depression Visibility Wind Speed Wind Dir Waves Ship Positions

Scout

Owner: Crowley Marine Services, SEATTLE, WA. More information available from US FCC via Universal Licensing System and Coast Guard Vessel Documentation Center.

Last reported at 2017-Jun-24 18:24 UTC. Time now 2017-Jun-24 18:50 UTC.
Position N 33°43' W 118°15'.

; draft 5.6 m.

Type: Tug. MMSI: 366764730.

Date/timePositionNaut miles runAvg speedWind from/ knotsBaromVisibWave heightAir tempDewpointWater temp
2017-Jun-24 18:24N 33°43' W 118°15'1 3.8
2017-Jun-24 18:00N 33°43' W 118°17'0 0.1
2017-Jun-24 17:30N 33°43' W 118°17'1 1.0
2017-Jun-24 17:00N 33°43' W 118°16'2 3.3
2017-Jun-24 16:23N 33°45' W 118°16'0 0.8
2017-Jun-24 15:56N 33°45' W 118°16'2 4.9
2017-Jun-24 15:28N 33°43' W 118°16'2 5.2
2017-Jun-24 15:00N 33°42' W 118°13'4 3.9
2017-Jun-24 14:00N 33°44' W 118°17'0 0.0
2017-Jun-24 13:29N 33°44' W 118°17'0 0.0
2017-Jun-24 13:00N 33°44' W 118°17'0 0.0
2017-Jun-24 12:30N 33°44' W 118°17'0 0.0
2017-Jun-24 12:00N 33°44' W 118°17'1 2.0
2017-Jun-24 11:30N 33°44' W 118°16'3 6.0
2017-Jun-24 11:00N 33°44' W 118°13'1 2.2
2017-Jun-24 10:30N 33°46' W 118°13'0 0.0
2017-Jun-24 10:00N 33°46' W 118°13'0 0.2
2017-Jun-24 09:23N 33°46' W 118°13'0 0.2
2017-Jun-24 09:00N 33°45' W 118°13'3 6.5
2017-Jun-24 08:30N 33°43' W 118°16'2 3.1
2017-Jun-24 08:00N 33°44' W 118°17'0 0.0
2017-Jun-24 07:30N 33°44' W 118°17'0 0.0
2017-Jun-24 07:00N 33°44' W 118°17'0 0.0
2017-Jun-24 06:30N 33°44' W 118°17'0 0.0
2017-Jun-24 06:00N 33°44' W 118°17'0 0.0
2017-Jun-24 05:30N 33°44' W 118°17'0 0.0
2017-Jun-24 05:00N 33°44' W 118°17'0 0.0
2017-Jun-24 04:30N 33°44' W 118°17'0 0.0
2017-Jun-24 04:00N 33°44' W 118°17'2 3.1
2017-Jun-24 03:30N 33°43' W 118°16'3 4.8
2017-Jun-24 02:52N 33°45' W 118°13'0 0.0
2017-Jun-24 02:20N 33°45' W 118°13'0 0.0
2017-Jun-24 01:35N 33°45' W 118°13'0 0.0
2017-Jun-24 01:27N 33°45' W 118°13'1 2.9
2017-Jun-24 00:58N 33°46' W 118°13'2 3.3
2017-Jun-24 00:23N 33°45' W 118°13'0 0.9
2017-Jun-23 23:58N 33°44' W 118°13'0 0.2
2017-Jun-23 23:30N 33°44' W 118°13'3 6.2
2017-Jun-23 23:00N 33°43' W 118°16'2 3.3
2017-Jun-23 22:30N 33°44' W 118°17'0 0.0
2017-Jun-23 22:00N 33°44' W 118°17'0 0.0
2017-Jun-23 21:27N 33°44' W 118°17'0 0.0
2017-Jun-23 21:00N 33°44' W 118°17'0 0.0
2017-Jun-23 20:30N 33°44' W 118°17'0 0.0
2017-Jun-23 20:00N 33°44' W 118°17'0 0.0
2017-Jun-23 19:29N 33°44' W 118°17'0 0.0
2017-Jun-23 19:00N 33°44' W 118°17'2 3.1
2017-Jun-23 18:30N 33°43' W 118°17'0 0.0
2017-Jun-23 18:00N 33°43' W 118°17'0 0.0
2017-Jun-23 17:29N 33°43' W 118°17'2 3.8
2017-Jun-23 17:00N 33°43' W 118°14'1 1.1
2017-Jun-23 16:30N 33°43' W 118°14'2 4.0
2017-Jun-23 16:00N 33°44' W 118°16'2 4.2
2017-Jun-23 15:30N 33°46' W 118°16'0 0.0
2017-Jun-23 14:59N 33°46' W 118°16'1 1.4
2017-Jun-23 14:00N 33°44' W 118°17'0 0.0
2017-Jun-23 13:29N 33°44' W 118°17'1 1.5
2017-Jun-23 13:00N 33°45' W 118°16'0 0.3
2017-Jun-23 12:30N 33°45' W 118°16'3 5.3
2017-Jun-23 12:00N 33°43' W 118°15'1 2.1
2017-Jun-23 11:30N 33°43' W 118°14'3 6.4
2017-Jun-23 11:00N 33°44' W 118°10'0 0.7
2017-Jun-23 10:30N 33°44' W 118°10'3 5.4
2017-Jun-23 09:58N 33°45' W 118°13'1 2.7
2017-Jun-23 09:29N 33°46' W 118°14'0 0.4
2017-Jun-23 08:50N 33°46' W 118°14'1 1.3
2017-Jun-23 08:27N 33°46' W 118°13'1 1.1
2017-Jun-23 07:33N 33°45' W 118°13'0 0.0
2017-Jun-23 07:05N 33°45' W 118°13'0 0.0
2017-Jun-23 06:52N 33°45' W 118°13'0 0.0
2017-Jun-23 06:28N 33°45' W 118°13'0 0.0
2017-Jun-23 05:44N 33°45' W 118°13'0 0.0
2017-Jun-23 05:30N 33°45' W 118°13'0 0.3
2017-Jun-23 05:00N 33°45' W 118°13'3 4.2
2017-Jun-23 04:20N 33°44' W 118°10'1 2.8
2017-Jun-23 04:00N 33°44' W 118°11'2 4.8
2017-Jun-23 03:31N 33°43' W 118°14'1 1.8
2017-Jun-23 03:00N 33°44' W 118°13'1 2.3
2017-Jun-23 02:31N 33°45' W 118°14'0 0.7
2017-Jun-23 02:00N 33°45' W 118°14'1 2.7
2017-Jun-23 01:30N 33°45' W 118°13'0 0.5
2017-Jun-23 01:00N 33°45' W 118°12'1 1.5
2017-Jun-23 00:30N 33°44' W 118°12'2 3.2
2017-Jun-23 00:00N 33°44' W 118°11'1 1.9
2017-Jun-22 23:30N 33°44' W 118°12'2 3.1
2017-Jun-22 23:00N 33°45' W 118°13'0 0.0
2017-Jun-22 22:26N 33°45' W 118°13'0 0.0
2017-Jun-22 21:38N 33°45' W 118°13'0 0.0
2017-Jun-22 21:29N 33°45' W 118°13'0 0.9
2017-Jun-22 21:00N 33°45' W 118°13'0 0.0
2017-Jun-22 20:30N 33°45' W 118°13'0 0.0
2017-Jun-22 20:00N 33°45' W 118°13'0 0.0
2017-Jun-22 19:30N 33°45' W 118°13'0 0.0
2017-Jun-22 19:00N 33°45' W 118°13'1 1.1
2017-Jun-22 18:28N 33°45' W 118°13'2 4.5
2017-Jun-22 18:00N 33°43' W 118°11'0 0.4
2017-Jun-22 17:30N 33°44' W 118°11'0 0.5
2017-Jun-22 17:00N 33°44' W 118°12'3 6.9
2017-Jun-22 16:30N 33°43' W 118°16'2 3.3
2017-Jun-22 16:00N 33°44' W 118°17'0 0.0
2017-Jun-22 15:25N 33°44' W 118°17'1 1.3
2017-Jun-22 15:00N 33°45' W 118°16'0 0.5
2017-Jun-22 14:29N 33°45' W 118°16'2 1.7
2017-Jun-22 13:30N 33°44' W 118°15'1 2.1
2017-Jun-22 13:00N 33°43' W 118°16'1 1.9
2017-Jun-22 12:30N 33°43' W 118°15'1 1.9
2017-Jun-22 12:00N 33°43' W 118°16'3 5.1
2017-Jun-22 11:30N 33°46' W 118°16'0 0.5
2017-Jun-22 11:00N 33°46' W 118°15'2 3.3
2017-Jun-22 10:30N 33°44' W 118°17'2 4.4
2017-Jun-22 10:00N 33°43' W 118°15'0 0.9
2017-Jun-22 09:30N 33°43' W 118°15'3 6.7
2017-Jun-22 09:00N 33°40' W 118°12'4 7.5
2017-Jun-22 08:30N 33°38' W 118°09'5 9.3
2017-Jun-22 08:00N 33°34' W 118°05'5 9.8
2017-Jun-22 07:28N 33°30' W 118°01'510.1
2017-Jun-22 07:00N 33°26' W 117°58'510.0
2017-Jun-22 06:30N 33°22' W 117°54'510.3
2017-Jun-22 06:00N 33°18' W 117°51'510.4
2017-Jun-22 05:30N 33°14' W 117°47'510.4
2017-Jun-22 05:00N 33°10' W 117°43'510.4
2017-Jun-22 04:30N 33°06' W 117°40'510.4
2017-Jun-22 04:00N 33°01' W 117°36'510.3
2017-Jun-22 03:30N 32°57' W 117°32'510.3
2017-Jun-22 03:00N 32°53' W 117°28'510.2
2017-Jun-22 02:30N 32°49' W 117°25'510.7
2017-Jun-22 02:00N 32°45' W 117°21'510.8
2017-Jun-22 01:30N 32°41' W 117°17'3 5.8
2017-Jun-22 01:00N 32°40' W 117°14'4 7.3
2017-Jun-22 00:30N 32°43' W 117°11'2 0.2
2017-Jun-21 15:02N 32°42' W 117°09'0 0.0
2017-Jun-21 14:59N 32°42' W 117°09'3 2.9
2017-Jun-21 13:56N 32°39' W 117°07'3 6.5
2017-Jun-21 13:30N 32°41' W 117°09'0 0.2
2017-Jun-21 11:45N 32°42' W 117°09'0 0.2
2017-Jun-21 11:30N 32°42' W 117°09'0 0.1
2017-Jun-21 10:50N 32°42' W 117°09'0 0.0
2017-Jun-21 10:27N 32°42' W 117°09'0 0.0
2017-Jun-21 10:00N 32°42' W 117°09'0 0.1
2017-Jun-21 09:30N 32°42' W 117°09'4 7.2
2017-Jun-21 09:00N 32°43' W 117°13'4 7.8
2017-Jun-21 08:30N 32°39' W 117°14'3 6.3
2017-Jun-21 08:00N 32°40' W 117°17'4 8.5
2017-Jun-21 07:30N 32°44' W 117°20'4 8.3
2017-Jun-21 07:00N 32°47' W 117°23'4 8.7
2017-Jun-21 06:30N 32°50' W 117°26'4 8.8
2017-Jun-21 06:00N 32°54' W 117°29'4 8.9
2017-Jun-21 05:30N 32°57' W 117°33'4 8.9
2017-Jun-21 05:00N 33°01' W 117°36'4 8.8
2017-Jun-21 04:30N 33°04' W 117°39'4 8.8
2017-Jun-21 04:00N 33°08' W 117°42'4 8.7
2017-Jun-21 03:30N 33°11' W 117°45'4 8.9
2017-Jun-21 03:00N 33°15' W 117°49'5 9.2
2017-Jun-21 02:30N 33°19' W 117°52'5 9.3
2017-Jun-21 02:00N 33°22' W 117°55'5 9.3
2017-Jun-21 01:30N 33°26' W 117°58'5 9.5
2017-Jun-21 01:00N 33°30' W 118°02'5 9.4
2017-Jun-21 00:30N 33°33' W 118°05'5 9.5
2017-Jun-21 00:00N 33°37' W 118°09'5 9.9
2017-Jun-20 23:30N 33°41' W 118°13'3 5.0
2017-Jun-20 22:59N 33°43' W 118°15'3 5.4
2017-Jun-20 22:30N 33°45' W 118°14'0 0.0
2017-Jun-20 22:00N 33°45' W 118°14'1 2.8
2017-Jun-20 21:30N 33°44' W 118°13'1 2.6
2017-Jun-20 21:00N 33°44' W 118°11'4 7.4
2017-Jun-20 20:30N 33°43' W 118°16'1 2.9
2017-Jun-20 20:00N 33°44' W 118°17'0 0.0
2017-Jun-20 19:30N 33°44' W 118°17'0 0.0
2017-Jun-20 19:00N 33°44' W 118°17'0 0.0
2017-Jun-20 18:30N 33°44' W 118°17'2 3.9
2017-Jun-20 18:00N 33°43' W 118°15'3 6.6
2017-Jun-20 17:30N 33°46' W 118°13'1 1.5
2017-Jun-20 17:00N 33°46' W 118°13'0 0.0
2017-Jun-20 16:29N 33°46' W 118°13'1 1.4
2017-Jun-20 16:00N 33°46' W 118°13'2 4.8
2017-Jun-20 15:29N 33°44' W 118°13'2 4.9
2017-Jun-20 15:00N 33°44' W 118°16'2 1.6
2017-Jun-20 14:00N 33°45' W 118°16'0 0.4
2017-Jun-20 13:31N 33°45' W 118°16'1 1.5
2017-Jun-20 13:00N 33°46' W 118°16'1 3.0
2017-Jun-20 12:30N 33°44' W 118°17'3 5.5
2017-Jun-20 12:00N 33°44' W 118°13'1 2.1
2017-Jun-20 11:23N 33°45' W 118°14'0 0.5
2017-Jun-20 10:59N 33°45' W 118°14'2 4.6
2017-Jun-20 10:28N 33°44' W 118°12'1 1.1
2017-Jun-20 09:47N 33°44' W 118°11'3 5.3
2017-Jun-20 09:12N 33°43' W 118°14'2 8.0
2017-Jun-20 09:00N 33°43' W 118°16'1 2.4
2017-Jun-20 08:30N 33°44' W 118°17'0 0.0
2017-Jun-20 07:59N 33°44' W 118°17'0 0.0
2017-Jun-20 07:30N 33°44' W 118°17'0 0.0
2017-Jun-20 07:00N 33°44' W 118°17'0 0.0
2017-Jun-20 06:30N 33°44' W 118°17'0 0.0
2017-Jun-20 06:00N 33°44' W 118°17'0 0.0
2017-Jun-20 05:30N 33°44' W 118°17'0 0.0
2017-Jun-20 05:00N 33°44' W 118°17'0 0.0
2017-Jun-20 04:30N 33°44' W 118°17'0 0.0
2017-Jun-20 04:00N 33°44' W 118°17'0 0.0
2017-Jun-20 03:30N 33°44' W 118°17'0 0.0
2017-Jun-20 03:00N 33°44' W 118°17'0 0.6
2017-Jun-20 02:30N 33°44' W 118°17'2 4.5
2017-Jun-20 02:00N 33°46' W 118°15'2 4.9
2017-Jun-20 01:30N 33°44' W 118°16'3 6.8
2017-Jun-20 01:00N 33°45' W 118°12'0 0.2
2017-Jun-20 00:30N 33°45' W 118°12'0 0.1
2017-Jun-20 00:00N 33°45' W 118°12'0 0.4
2017-Jun-19 23:30N 33°45' W 118°12'3 6.7
2017-Jun-19 23:01N 33°43' W 118°16'1 2.2
2017-Jun-19 22:30N 33°44' W 118°17'0 0.0
2017-Jun-19 22:00N 33°44' W 118°17'0 0.0
2017-Jun-19 21:30N 33°44' W 118°17'0 0.0
2017-Jun-19 21:00N 33°44' W 118°17'0 0.0
2017-Jun-19 20:30N 33°44' W 118°17'0 0.0
2017-Jun-19 20:00N 33°44' W 118°17'0 0.0
2017-Jun-19 19:30N 33°44' W 118°17'0 0.0
2017-Jun-19 19:01N 33°44' W 118°17'3 5.3
2017-Jun-19 18:30N 33°44' W 118°14'2 3.6
2017-Jun-19 18:00N 33°45' W 118°13'0 0.0
2017-Jun-19 17:30N 33°45' W 118°13'0 0.1
2017-Jun-19 17:00N 33°45' W 118°13'1 2.2
2017-Jun-19 16:30N 33°44' W 118°13'1 1.5
2017-Jun-19 16:00N 33°44' W 118°12'0 0.0
2017-Jun-19 15:30N 33°44' W 118°12'0 0.1
2017-Jun-19 15:00N 33°44' W 118°12'1 2.2
2017-Jun-19 14:31N 33°45' W 118°13'2 2.2
2017-Jun-19 13:30N 33°44' W 118°10'0 0.3
2017-Jun-19 13:00N 33°44' W 118°11'1 1.7
2017-Jun-19 12:29N 33°44' W 118°12'1 1.7
2017-Jun-19 12:00N 33°44' W 118°13'3 5.6
2017-Jun-19 11:30N 33°43' W 118°16'1 2.5
2017-Jun-19 10:58N 33°44' W 118°17'0 0.0
2017-Jun-19 10:30N 33°44' W 118°17'0 0.0
2017-Jun-19 10:00N 33°44' W 118°17'0 0.0
2017-Jun-19 09:30N 33°44' W 118°17'0 0.0
2017-Jun-19 09:00N 33°44' W 118°17'1 2.0
2017-Jun-19 08:30N 33°45' W 118°16'0 0.0
2017-Jun-19 08:00N 33°45' W 118°16'1 2.2
2017-Jun-19 07:30N 33°44' W 118°17'3 5.0
2017-Jun-19 07:00N 33°43' W 118°14'4 7.1
2017-Jun-19 06:30N 33°44' W 118°10'0 0.8
2017-Jun-19 06:00N 33°44' W 118°09'0 0.1
2017-Jun-19 05:30N 33°44' W 118°09'3 5.1
2017-Jun-19 05:01N 33°43' W 118°12'4 7.0
2017-Jun-19 04:30N 33°44' W 118°17'0 0.7
2017-Jun-19 04:00N 33°44' W 118°17'0 0.0
2017-Jun-19 03:30N 33°44' W 118°17'0 0.0
2017-Jun-19 03:00N 33°44' W 118°17'0 0.0
2017-Jun-19 02:27N 33°44' W 118°17'1 2.8
2017-Jun-19 02:00N 33°43' W 118°16'1 1.3
2017-Jun-19 01:30N 33°44' W 118°15'0 0.5
2017-Jun-19 01:00N 33°44' W 118°15'0 1.0
2017-Jun-19 00:31N 33°44' W 118°16'1 2.2
2017-Jun-19 00:00N 33°44' W 118°17'0 0.0
2017-Jun-18 23:30N 33°44' W 118°17'0 0.0
2017-Jun-18 23:00N 33°44' W 118°17'1 1.5
2017-Jun-18 22:30N 33°45' W 118°16'1 1.8
2017-Jun-18 22:01N 33°44' W 118°17'1 2.8
2017-Jun-18 21:30N 33°43' W 118°16'2 3.1
2017-Jun-18 21:00N 33°42' W 118°14'2 3.5
2017-Jun-18 20:30N 33°43' W 118°16'1 2.9
2017-Jun-18 20:00N 33°44' W 118°17'0 0.0
2017-Jun-18 19:30N 33°44' W 118°17'0 0.0
2017-Jun-18 19:00N 33°44' W 118°17'0 0.0
2017-Jun-18 18:30N 33°44' W 118°17'0 0.0
2017-Jun-18 18:00N 33°44' W 118°17'0 0.0
2017-Jun-18 17:30N 33°44' W 118°17'0 0.0
2017-Jun-18 17:00N 33°44' W 118°17'0 0.0
2017-Jun-18 16:30N 33°44' W 118°17'0 0.9
2017-Jun-18 16:00N 33°44' W 118°17'3 5.4
2017-Jun-18 15:30N 33°44' W 118°13'2 3.6
2017-Jun-18 14:56N 33°46' W 118°13'0 0.2
2017-Jun-18 13:59N 33°46' W 118°13'1 2.5
2017-Jun-18 13:30N 33°45' W 118°13'3 5.8
2017-Jun-18 13:00N 33°43' W 118°11'2 3.5
2017-Jun-18 12:25N 33°42' W 118°08'2 3.5
2017-Jun-18 11:58N 33°43' W 118°10'3 6.8
2017-Jun-18 11:31N 33°45' W 118°13'0 0.5
2017-Jun-18 11:00N 33°45' W 118°13'0 0.0
2017-Jun-18 10:30N 33°45' W 118°13'0 0.0
2017-Jun-18 10:00N 33°45' W 118°13'0 1.0
2017-Jun-18 09:30N 33°45' W 118°13'0 0.0
2017-Jun-18 09:00N 33°45' W 118°13'0 0.0
2017-Jun-18 08:30N 33°45' W 118°13'0 0.0
2017-Jun-18 08:00N 33°45' W 118°13'0 0.4
2017-Jun-18 07:30N 33°45' W 118°13'2 3.5
2017-Jun-18 07:00N 33°44' W 118°12'1 2.3
2017-Jun-18 06:30N 33°44' W 118°10'0 0.2
2017-Jun-18 06:00N 33°44' W 118°11'1 2.7
2017-Jun-18 05:30N 33°43' W 118°12'3 5.9
2017-Jun-18 04:59N 33°43' W 118°16'1 3.0
2017-Jun-18 04:30N 33°44' W 118°17'0 0.0
2017-Jun-18 04:00N 33°44' W 118°17'0 0.0
2017-Jun-18 03:30N 33°44' W 118°17'0 0.0
2017-Jun-18 03:01N 33°44' W 118°17'0 0.0
2017-Jun-18 02:30N 33°44' W 118°17'0 0.0
2017-Jun-18 02:00N 33°44' W 118°17'0 0.0
2017-Jun-18 01:30N 33°44' W 118°17'0 0.0
2017-Jun-18 01:00N 33°44' W 118°17'0 0.0
2017-Jun-18 00:30N 33°44' W 118°17'0 0.0
2017-Jun-18 00:00N 33°44' W 118°17'0 0.0
2017-Jun-17 23:30N 33°44' W 118°17'0 0.0
2017-Jun-17 23:00N 33°44' W 118°17'0 0.0
2017-Jun-17 22:30N 33°44' W 118°17'0 0.0
2017-Jun-17 22:00N 33°44' W 118°17'0 0.0
2017-Jun-17 21:30N 33°44' W 118°17'0 0.0
2017-Jun-17 21:00N 33°44' W 118°17'0 0.0
2017-Jun-17 20:30N 33°44' W 118°17'0 0.0
2017-Jun-17 20:00N 33°44' W 118°17'0 0.0
2017-Jun-17 19:30N 33°44' W 118°17'0 0.0
2017-Jun-17 19:00N 33°44' W 118°17'0 0.0
2017-Jun-17 18:30N 33°44' W 118°17'0 0.0
2017-Jun-17 18:00N 33°44' W 118°17'0 0.0
2017-Jun-17 17:30N 33°44' W 118°17'0 0.0
2017-Jun-17 17:00N 33°44' W 118°17'0 0.0
2017-Jun-17 16:30N 33°44' W 118°17'0 0.0
2017-Jun-17 16:00N 33°44' W 118°17'0 0.0
2017-Jun-17 15:30N 33°44' W 118°17'1 1.6
2017-Jun-17 15:00N 33°44' W 118°16'3 3.2
2017-Jun-17 14:00N 33°45' W 118°13'0 0.1
2017-Jun-17 13:27N 33°45' W 118°13'1 3.1
2017-Jun-17 13:00N 33°46' W 118°13'2 3.6
2017-Jun-17 12:30N 33°45' W 118°13'1 2.8
2017-Jun-17 12:00N 33°44' W 118°12'0 0.5
2017-Jun-17 11:30N 33°44' W 118°12'3 6.8
2017-Jun-17 11:01N 33°43' W 118°16'1 2.5
2017-Jun-17 10:30N 33°44' W 118°17'0 0.0
2017-Jun-17 10:00N 33°44' W 118°17'0 0.0
2017-Jun-17 09:30N 33°44' W 118°17'0 0.0
2017-Jun-17 09:00N 33°44' W 118°17'0 0.0
2017-Jun-17 08:30N 33°44' W 118°17'0 0.0
2017-Jun-17 08:00N 33°44' W 118°17'0 0.0
2017-Jun-17 07:30N 33°44' W 118°17'0 0.0
2017-Jun-17 07:00N 33°44' W 118°17'0 0.0
2017-Jun-17 06:30N 33°44' W 118°17'0 0.0
2017-Jun-17 05:55N 33°44' W 118°17'0 0.0
2017-Jun-17 05:21N 33°44' W 118°17'0 0.0
2017-Jun-17 00:03N 33°44' W 118°17'0 0.0
2017-Jun-16 23:20N 33°44' W 118°17'0 0.0
2017-Jun-16 23:00N 33°44' W 118°17'0 0.0
2017-Jun-16 22:30N 33°44' W 118°17'0 0.0
2017-Jun-16 22:00N 33°44' W 118°17'0 0.0
2017-Jun-16 21:30N 33°44' W 118°17'0 0.0
2017-Jun-16 21:00N 33°44' W 118°17'0 0.0
2017-Jun-16 20:30N 33°44' W 118°17'0 0.0
2017-Jun-16 20:00N 33°44' W 118°17'0 0.0
2017-Jun-16 19:30N 33°44' W 118°17'0 0.0
2017-Jun-16 19:00N 33°44' W 118°17'0 0.0
2017-Jun-16 18:30N 33°44' W 118°17'0 0.0
2017-Jun-16 18:00N 33°44' W 118°17'0 0.0
2017-Jun-16 17:30N 33°44' W 118°17'0 0.0
2017-Jun-16 16:46N 33°44' W 118°17'1 2.4
2017-Jun-16 16:30N 33°44' W 118°16'3 5.7
2017-Jun-16 16:01N 33°45' W 118°13'2 3.5
2017-Jun-16 15:30N 33°46' W 118°13'0 0.3
2017-Jun-16 15:00N 33°46' W 118°13'3 3.9
2017-Jun-16 14:19N 33°44' W 118°13'0 0.2
2017-Jun-16 13:30N 33°44' W 118°13'2 3.3
2017-Jun-16 13:00N 33°45' W 118°14'1 1.2
2017-Jun-16 12:30N 33°45' W 118°15'0 0.1
2017-Jun-16 12:00N 33°45' W 118°15'0 0.1
2017-Jun-16 11:30N 33°45' W 118°15'2 4.2
2017-Jun-16 11:00N 33°43' W 118°14'2 4.8
2017-Jun-16 10:30N 33°44' W 118°17'0 0.0
2017-Jun-16 10:00N 33°44' W 118°17'0 0.0
2017-Jun-16 09:30N 33°44' W 118°17'0 0.0
2017-Jun-16 09:00N 33°44' W 118°17'0 0.0
2017-Jun-16 08:30N 33°44' W 118°17'0 0.0
2017-Jun-16 08:00N 33°44' W 118°17'0 0.0
2017-Jun-16 07:30N 33°44' W 118°17'0 0.0
2017-Jun-16 07:00N 33°44' W 118°17'0 0.0
2017-Jun-16 06:30N 33°44' W 118°17'0 0.0
2017-Jun-16 06:00N 33°44' W 118°17'0 0.0
2017-Jun-16 05:30N 33°44' W 118°17'0 0.0
2017-Jun-16 04:59N 33°44' W 118°17'0 0.0
2017-Jun-16 04:30N 33°44' W 118°17'0 0.0
2017-Jun-16 04:00N 33°44' W 118°17'0 0.0
2017-Jun-16 03:20N 33°44' W 118°17'0 0.0
2017-Jun-16 02:59N 33°44' W 118°17'0 0.0
2017-Jun-16 02:27N 33°44' W 118°17'0 0.0
2017-Jun-16 01:58N 33°44' W 118°17'0 0.0
2017-Jun-16 01:29N 33°44' W 118°17'0 0.0
2017-Jun-16 01:00N 33°44' W 118°17'0 0.0
2017-Jun-16 00:30N 33°44' W 118°17'0 0.0
2017-Jun-16 00:00N 33°44' W 118°17'0 0.0
2017-Jun-15 23:30N 33°44' W 118°17'1 1.1
2017-Jun-15 23:00N 33°45' W 118°16'1 1.9
2017-Jun-15 22:30N 33°46' W 118°17'1 2.5
2017-Jun-15 22:00N 33°45' W 118°17'2 4.7
2017-Jun-15 21:30N 33°43' W 118°15'0 0.1
2017-Jun-15 21:00N 33°43' W 118°15'2 4.5
2017-Jun-15 20:30N 33°44' W 118°17'0 0.0
2017-Jun-15 20:00N 33°44' W 118°17'0 0.0
2017-Jun-15 19:30N 33°44' W 118°17'0 0.0
2017-Jun-15 19:00N 33°44' W 118°17'0 0.0
2017-Jun-15 18:30N 33°44' W 118°17'0 0.0
2017-Jun-15 18:00N 33°44' W 118°17'0 0.0
2017-Jun-15 17:30N 33°44' W 118°17'0 0.0
2017-Jun-15 17:00N 33°44' W 118°17'2 4.2
2017-Jun-15 16:30N 33°43' W 118°15'3 6.0
2017-Jun-15 16:01N 33°45' W 118°13'1 1.9
2017-Jun-15 15:30N 33°46' W 118°13'0 0.4
2017-Jun-15 15:00N 33°46' W 118°13'0 0.0
2017-Jun-15 14:30N 33°46' W 118°13'0 0.1
2017-Jun-15 13:30N 33°46' W 118°13'3 6.7
2017-Jun-15 13:00N 33°43' W 118°14'3 5.2
2017-Jun-15 12:30N 33°44' W 118°17'0 0.0
2017-Jun-15 12:00N 33°44' W 118°17'0 0.0
2017-Jun-15 11:30N 33°44' W 118°17'0 0.0
2017-Jun-15 11:00N 33°44' W 118°17'0 0.0
2017-Jun-15 10:30N 33°44' W 118°17'0 0.0
2017-Jun-15 10:00N 33°44' W 118°17'0 0.0
2017-Jun-15 09:30N 33°44' W 118°17'1 1.1
2017-Jun-15 09:00N 33°44' W 118°16'3 5.6
2017-Jun-15 08:31N 33°44' W 118°13'1 1.8
2017-Jun-15 08:00N 33°45' W 118°13'0 0.6
2017-Jun-15 07:30N 33°45' W 118°13'2 3.2
2017-Jun-15 07:00N 33°44' W 118°12'0 0.5
2017-Jun-15 06:30N 33°44' W 118°12'0 0.1
2017-Jun-15 06:00N 33°44' W 118°12'0 0.0
2017-Jun-15 05:30N 33°44' W 118°12'1 1.2
2017-Jun-15 05:00N 33°44' W 118°13'1 1.0
2017-Jun-15 04:27N 33°45' W 118°13'0 0.0
2017-Jun-15 04:00N 33°45' W 118°13'0 0.0
2017-Jun-15 03:30N 33°45' W 118°13'0 0.0
2017-Jun-15 03:00N 33°45' W 118°13'0 0.0
2017-Jun-15 02:30N 33°45' W 118°13'0 0.0
2017-Jun-15 02:00N 33°45' W 118°13'0 0.0
2017-Jun-15 01:30N 33°45' W 118°13'2 3.3
2017-Jun-15 01:00N 33°44' W 118°12'3 6.1
2017-Jun-15 00:30N 33°41' W 118°10'2 4.2
2017-Jun-15 00:00N 33°42' W 118°13'4 8.0
2017-Jun-14 23:30N 33°44' W 118°17'0 0.8
2017-Jun-14 23:00N 33°44' W 118°17'0 0.0
2017-Jun-14 22:30N 33°44' W 118°17'0 0.0
2017-Jun-14 22:00N 33°44' W 118°17'0 0.0
2017-Jun-14 21:30N 33°44' W 118°17'0 0.0
2017-Jun-14 21:00N 33°44' W 118°17'0 0.0
2017-Jun-14 20:30N 33°44' W 118°17'0 0.0
2017-Jun-14 20:00N 33°44' W 118°17'0 0.0
2017-Jun-14 19:30N 33°44' W 118°17'0 0.0
2017-Jun-14 19:00N 33°44' W 118°17'0 0.0
2017-Jun-14 18:30N 33°44' W 118°17'  

Dump ship's entire track history